Time;durP1;ratioP1;P1;durP2;ratioP2;P2;SDS_P1;SDS_P2;PMS_P1;PMS_P2;Temp;Humidity;BMP_temperature;BMP_pressure;BME280_temperature;BME280_humidity;BME280_pressure;Samples;Min_cycle;Max_cycle;Signal;HPM_P1;HPM_P2
2023/05/25 00:01:35;;;;;;;35.28;5.70;;;;;;;15.62;93.00;101663.22;5061498;28;20067;-71
2023/05/25 00:04:04;;;;;;;29.25;5.45;;;;;;;15.57;93.10;101654.91;5061605;28;20111;-70
2023/05/25 00:06:36;;;;;;;29.88;6.32;;;;;;;15.51;93.30;101659.28;5061289;28;20035;-70
2023/05/25 00:09:02;;;;;;;30.17;6.55;;;;;;;15.42;93.27;101666.78;5062153;28;20052;-70
2023/05/25 00:11:27;;;;;;;37.83;6.60;;;;;;;15.41;93.52;101669.72;5078410;28;20476;-71
2023/05/25 00:13:53;;;;;;;35.40;6.75;;;;;;;15.41;93.85;101665.13;5057681;28;20174;-70
2023/05/25 00:16:19;;;;;;;38.88;6.22;;;;;;;15.41;93.85;101667.00;5040321;28;20048;-70
2023/05/25 00:18:47;;;;;;;37.53;6.28;;;;;;;15.42;94.15;101669.50;5043836;28;20035;-70
2023/05/25 00:21:13;;;;;;;29.08;5.55;;;;;;;15.39;94.32;101669.09;5080389;28;20032;-71
2023/05/25 00:23:38;;;;;;;44.85;6.70;;;;;;;15.37;94.36;101669.31;5065169;28;20038;-70
2023/05/25 00:26:04;;;;;;;30.35;5.78;;;;;;;15.36;94.36;101669.50;5065392;28;20035;-71
2023/05/25 00:28:29;;;;;;;23.33;4.45;;;;;;;15.36;95.38;101648.63;5100155;28;20031;-71
2023/05/25 00:30:55;;;;;;;20.23;4.80;;;;;;;15.65;95.35;101668.22;5068610;28;20124;-71
2023/05/25 00:33:21;;;;;;;19.42;4.07;;;;;;;15.86;96.00;101662.59;5086255;28;20043;-71
2023/05/25 00:35:46;;;;;;;16.27;3.97;;;;;;;16.01;96.70;101673.19;5082350;28;20055;-71
2023/05/25 00:38:18;;;;;;;14.45;3.42;;;;;;;16.13;96.92;101659.78;5086090;28;20032;-70
2023/05/25 00:40:44;;;;;;;13.20;3.33;;;;;;;15.95;98.23;101639.56;5109283;28;20038;-71
2023/05/25 00:43:11;;;;;;;10.05;1.90;;;;;;;16.11;100.00;101686.31;5087484;28;20052;-71
2023/05/25 00:45:37;;;;;;;8.38;1.90;;;;;;;16.21;97.17;101695.66;5085716;28;20089;-72
2023/05/25 00:48:04;;;;;;;4.90;1.40;;;;;;;16.34;88.68;101664.06;5068632;28;20124;-71
2023/05/25 00:50:41;;;;;;;4.47;1.23;;;;;;;16.59;83.90;101661.44;5085013;28;20030;-71
2023/05/25 00:53:07;;;;;;;4.25;1.35;;;;;;;16.68;84.16;101688.09;5082309;28;20035;-71
2023/05/25 00:55:37;;;;;;;11.38;2.08;;;;;;;16.86;87.55;101697.47;5085058;28;20116;-71
2023/05/25 00:58:05;;;;;;;5.07;1.48;;;;;;;16.53;81.49;101703.06;5084188;28;20030;-70
2023/05/25 01:00:33;;;;;;;4.45;1.65;;;;;;;16.54;77.40;101682.97;5067138;28;20051;-71
2023/05/25 01:02:59;;;;;;;6.47;1.50;;;;;;;16.61;78.34;101700.06;5102176;28;20036;-71
2023/05/25 01:05:28;;;;;;;6.80;1.75;;;;;;;16.66;77.61;101716.56;5101042;28;20028;-71
2023/05/25 01:07:58;;;;;;;8.20;2.10;;;;;;;16.58;77.38;101700.50;5102776;28;20020;-71
2023/05/25 01:10:24;;;;;;;4.93;1.50;;;;;;;16.64;78.03;101718.66;5083736;28;20016;-71
2023/05/25 01:12:53;;;;;;;11.23;2.28;;;;;;;16.74;79.29;101727.19;5084011;28;20028;-71
2023/05/25 01:15:19;;;;;;;7.03;2.10;;;;;;;16.62;78.50;101729.75;5083782;28;20087;-71
2023/05/25 01:17:45;;;;;;;10.95;2.50;;;;;;;16.51;78.93;101714.13;5084032;28;20028;-71
2023/05/25 01:20:11;;;;;;;9.80;2.40;;;;;;;16.62;79.52;101723.47;5067454;28;20214;-71
2023/05/25 01:22:50;;;;;;;10.63;2.50;;;;;;;16.49;78.87;101729.84;5081733;28;20418;-71
2023/05/25 01:25:28;;;;;;;8.57;2.00;;;;;;;16.61;79.34;101736.22;5082936;28;20020;-71
2023/05/25 01:28:05;;;;;;;6.15;1.60;;;;;;;16.42;77.60;101724.44;5106323;28;20034;-72
2023/05/25 01:30:31;;;;;;;11.98;2.25;;;;;;;16.46;79.46;101713.97;5104352;28;20028;-71
2023/05/25 01:32:58;;;;;;;8.63;2.22;;;;;;;16.51;79.85;101735.03;5103531;28;20024;-71
2023/05/25 01:35:26;;;;;;;9.07;2.60;;;;;;;16.30;80.46;101712.56;5102777;28;20028;-71
2023/05/25 01:37:51;;;;;;;7.47;2.08;;;;;;;16.36;80.51;101710.88;5102467;28;20032;-72
2023/05/25 01:40:17;;;;;;;9.63;2.40;;;;;;;16.39;81.09;101716.69;5084946;28;20085;-71
2023/05/25 01:42:42;;;;;;;7.55;2.15;;;;;;;16.14;81.82;101680.44;5068291;28;20039;-71
2023/05/25 01:45:10;;;;;;;11.98;2.45;;;;;;;16.47;82.32;101728.38;5085591;28;20371;-70
2023/05/25 01:48:09;;;;;;;9.27;2.20;;;;;;;16.48;82.48;101720.00;5085058;28;20046;-71
2023/05/25 01:50:38;;;;;;;8.98;2.25;;;;;;;16.68;82.48;101741.63;5079432;28;20567;-71
2023/05/25 01:53:08;;;;;;;10.38;2.47;;;;;;;16.94;82.32;101742.56;5102259;28;20042;-71
2023/05/25 01:55:45;;;;;;;8.02;2.38;;;;;;;16.95;81.59;101742.34;5081881;28;20059;-71
2023/05/25 01:58:14;;;;;;;6.10;2.05;;;;;;;16.97;80.77;101744.84;5080917;28;20028;-72
2023/05/25 02:00:44;;;;;;;7.22;1.83;;;;;;;16.85;80.54;101736.56;5082672;28;20135;-71
2023/05/25 02:03:09;;;;;;;8.02;1.63;;;;;;;16.80;80.56;101731.78;5065774;28;20028;-71
2023/05/25 02:05:35;;;;;;;8.18;2.13;;;;;;;16.75;79.45;101737.03;5066221;28;20501;-72
2023/05/25 02:08:01;;;;;;;6.40;2.25;;;;;;;16.82;79.00;101732.41;5066741;28;20047;-70
2023/05/25 02:10:26;;;;;;;7.30;2.17;;;;;;;16.79;78.76;101726.56;5066451;28;20031;-71
2023/05/25 02:12:52;;;;;;;8.30;2.33;;;;;;;16.86;79.14;101749.94;5102112;28;20024;-71
2023/05/25 02:15:17;;;;;;;10.05;2.45;;;;;;;16.76;79.69;101733.28;5049743;28;20032;-71
2023/05/25 02:17:43;;;;;;;7.88;1.75;;;;;;;16.74;80.23;101743.47;5083613;28;20035;-71
2023/05/25 02:20:10;;;;;;;5.68;1.58;;;;;;;16.56;80.11;101763.22;5084337;28;20088;-70
2023/05/25 02:22:36;;;;;;;5.78;1.85;;;;;;;16.33;79.60;101717.56;5099125;28;20123;-71
2023/05/25 02:25:02;;;;;;;11.93;1.90;;;;;;;16.54;77.92;101740.03;5063091;28;20036;-71
2023/05/25 02:27:27;;;;;;;8.70;1.90;;;;;;;16.36;77.75;101776.88;5083878;28;20134;-71
2023/05/25 02:29:53;;;;;;;8.00;2.10;;;;;;;16.17;77.03;101756.03;5097835;28;20134;-71
2023/05/25 02:32:18;;;;;;;7.70;1.75;;;;;;;16.12;77.57;101764.81;5080644;28;20028;-71
2023/05/25 02:34:43;;;;;;;8.13;1.88;;;;;;;16.16;76.83;101776.13;5102669;28;20062;-71
2023/05/25 02:37:09;;;;;;;11.77;1.70;;;;;;;16.06;75.70;101764.81;5084713;28;20118;-71
2023/05/25 02:39:34;;;;;;;8.82;1.73;;;;;;;16.21;74.70;101762.72;5067347;28;20047;-71
2023/05/25 02:42:00;;;;;;;5.95;1.70;;;;;;;16.13;73.67;101777.38;5084145;28;20027;-71
2023/05/25 02:44:25;;;;;;;7.18;1.75;;;;;;;16.01;73.11;101767.34;5084079;28;20031;-71
2023/05/25 02:46:51;;;;;;;4.85;1.40;;;;;;;15.84;72.46;101766.97;5101485;28;20087;-72
2023/05/25 02:49:16;;;;;;;2.95;1.30;;;;;;;16.03;72.24;101781.56;5101386;28;20031;-71
2023/05/25 02:51:42;;;;;;;5.13;1.70;;;;;;;16.18;70.93;101784.88;5100592;28;20024;-71
2023/05/25 02:54:07;;;;;;;7.68;1.40;;;;;;;15.98;70.54;101777.59;5065881;28;20035;-71
2023/05/25 02:56:32;;;;;;;4.95;1.40;;;;;;;15.93;69.71;101804.53;5084421;28;20119;-71
2023/05/25 02:58:58;;;;;;;6.20;1.80;;;;;;;15.83;69.20;101787.03;5066336;28;20036;-71
2023/05/25 03:01:24;;;;;;;5.45;1.58;;;;;;;16.21;68.57;101806.16;5064731;28;20506;-71
2023/05/25 03:03:52;;;;;;;5.50;1.63;;;;;;;16.12;68.93;101800.13;5083090;28;20024;-71
2023/05/25 03:06:20;;;;;;;7.95;1.77;;;;;;;16.03;67.50;101806.84;5100235;28;20032;-71
2023/05/25 03:08:45;;;;;;;6.07;1.60;;;;;;;16.30;66.92;101814.94;5080447;28;20097;-72
2023/05/25 03:11:11;;;;;;;5.50;1.55;;;;;;;16.34;66.06;101811.56;5080868;28;20036;-71
2023/05/25 03:13:36;;;;;;;6.25;1.75;;;;;;;16.34;66.68;101819.72;5081802;28;20047;-71
2023/05/25 03:16:02;;;;;;;7.18;1.80;;;;;;;16.30;65.59;101825.78;5100124;28;20131;-71
2023/05/25 03:18:27;;;;;;;5.82;1.60;;;;;;;16.38;65.08;101837.25;5081319;28;20032;-70
2023/05/25 03:20:53;;;;;;;6.18;1.77;;;;;;;16.32;65.01;101840.81;5065136;28;20032;-72
2023/05/25 03:23:18;;;;;;;5.25;1.75;;;;;;;16.44;63.94;101846.44;5081182;28;20538;-71
2023/05/25 03:25:44;;;;;;;6.75;1.90;;;;;;;16.40;63.91;101850.63;5062630;28;20056;-71
2023/05/25 03:28:10;;;;;;;8.07;1.70;;;;;;;16.27;64.26;101848.78;5083184;28;20114;-71
2023/05/25 03:30:35;;;;;;;6.78;1.73;;;;;;;16.33;63.29;101838.94;5082713;28;20035;-71
2023/05/25 03:33:00;;;;;;;8.05;1.85;;;;;;;16.60;62.89;101864.16;5100945;28;20108;-71
2023/05/25 03:35:26;;;;;;;9.48;2.25;;;;;;;16.52;63.83;101875.25;5066568;28;20047;-72
2023/05/25 03:37:51;;;;;;;7.47;1.98;;;;;;;16.56;62.51;101881.97;5066234;28;20521;-72
2023/05/25 03:40:17;;;;;;;8.70;2.05;;;;;;;16.57;62.69;101880.91;5082836;28;20027;-71
2023/05/25 03:42:42;;;;;;;5.57;1.73;;;;;;;16.43;62.01;101875.50;5082638;28;20165;-71
2023/05/25 03:45:08;;;;;;;9.63;2.47;;;;;;;16.44;61.95;101893.44;5064205;28;20368;-71
2023/05/25 03:47:35;;;;;;;7.53;2.10;;;;;;;16.35;62.54;101899.31;5064998;28;20039;-71
2023/05/25 03:50:02;;;;;;;6.82;2.00;;;;;;;16.49;61.42;101897.41;5064718;28;20032;-71
2023/05/25 03:52:27;;;;;;;6.82;1.90;;;;;;;16.44;60.34;101904.31;5099416;28;20028;-71
2023/05/25 03:54:52;;;;;;;5.95;2.20;;;;;;;16.70;59.93;101885.47;5065528;28;20039;-71
2023/05/25 03:57:18;;;;;;;10.05;2.33;;;;;;;16.72;59.92;101900.53;5081738;28;20567;-72
2023/05/25 03:59:43;;;;;;;10.05;2.65;;;;;;;16.84;59.80;101908.88;5100093;28;20035;-73
2023/05/25 04:02:09;;;;;;;8.02;2.03;;;;;;;17.11;59.59;101915.03;5067335;28;20052;-73
2023/05/25 04:04:34;;;;;;;8.93;2.47;;;;;;;17.05;58.78;101880.53;5085399;28;20204;-72
2023/05/25 04:07:00;;;;;;;8.35;2.30;;;;;;;17.18;58.31;101920.47;5086327;28;20096;-72
2023/05/25 04:09:25;;;;;;;8.13;2.42;;;;;;;17.44;57.53;101916.78;5069691;28;20505;-74
2023/05/25 04:11:51;;;;;;;6.80;2.78;;;;;;;17.49;57.33;101920.53;5084153;28;20513;-75
2023/05/25 04:14:19;;;;;;;8.38;2.60;;;;;;;17.58;57.25;101924.66;5084217;28;20119;-75
2023/05/25 04:16:44;;;;;;;12.93;2.83;;;;;;;17.50;56.97;101903.13;5067961;28;20107;-73
2023/05/25 04:19:10;;;;;;;11.98;2.80;;;;;;;17.64;56.99;101927.53;5101186;28;20070;-71
2023/05/25 04:21:35;;;;;;;10.85;2.60;;;;;;;17.38;57.00;101932.94;5083459;28;20056;-72
2023/05/25 04:24:01;;;;;;;8.55;2.33;;;;;;;17.79;56.42;101934.41;5083981;28;20032;-71
2023/05/25 04:26:26;;;;;;;10.98;2.72;;;;;;;17.56;56.40;101909.59;5103500;28;20042;-71
2023/05/25 04:28:54;;;;;;;7.78;2.40;;;;;;;17.79;56.64;101934.41;5084684;28;20110;-72
2023/05/25 04:31:20;;;;;;;10.95;2.67;;;;;;;17.62;56.54;101941.38;5103953;28;20032;-72
2023/05/25 04:33:46;;;;;;;12.95;2.55;;;;;;;17.87;55.79;101933.28;5084706;28;20027;-73
2023/05/25 04:36:13;;;;;;;7.60;2.85;;;;;;;17.81;56.02;101937.75;5067646;28;20036;-72
2023/05/25 04:38:39;;;;;;;11.10;2.60;;;;;;;18.21;54.75;101936.59;5068242;28;20466;-71
2023/05/25 04:41:05;;;;;;;11.35;2.92;;;;;;;18.54;54.36;101939.88;5068688;28;20032;-71
2023/05/25 04:43:31;;;;;;;10.90;2.90;;;;;;;18.34;54.42;101933.75;5101681;28;20024;-71
2023/05/25 04:45:58;;;;;;;12.95;2.58;;;;;;;18.33;54.38;101955.78;5082767;28;20031;-71
2023/05/25 04:48:24;;;;;;;14.30;3.25;;;;;;;18.17;54.08;101947.09;5082878;28;20073;-71
2023/05/25 04:50:50;;;;;;;8.75;2.67;;;;;;;17.97;54.34;101947.25;5100691;28;20099;-71
2023/05/25 04:53:16;;;;;;;11.32;3.35;;;;;;;18.15;53.76;101965.56;5067429;28;20024;-71
2023/05/25 04:55:41;;;;;;;9.43;2.90;;;;;;;17.88;53.96;101964.06;5050491;28;20032;-72
2023/05/25 04:58:07;;;;;;;12.90;3.00;;;;;;;17.75;53.90;101944.03;5066907;28;20028;-72
2023/05/25 05:00:33;;;;;;;19.10;3.50;;;;;;;17.88;54.47;101985.84;5051064;28;20048;-72
2023/05/25 05:02:59;;;;;;;14.68;3.40;;;;;;;17.68;54.29;101989.53;5086287;28;20093;-71
2023/05/25 05:05:25;;;;;;;12.98;3.13;;;;;;;17.41;55.46;101982.50;5084105;28;20471;-72
2023/05/25 05:07:50;;;;;;;12.93;3.20;;;;;;;17.21;55.52;101975.25;5103001;28;20361;-72
2023/05/25 05:10:19;;;;;;;9.88;2.92;;;;;;;17.43;55.06;101966.81;5087051;28;20031;-72
2023/05/25 05:12:44;;;;;;;11.35;3.20;;;;;;;17.51;53.79;101981.00;5051338;28;20444;-71
2023/05/25 05:15:10;;;;;;;8.45;2.90;;;;;;;17.68;53.99;101984.06;5103134;28;20028;-72
2023/05/25 05:17:35;;;;;;;9.00;2.80;;;;;;;17.71;53.04;101991.78;5072045;28;20600;-72
2023/05/25 05:20:03;;;;;;;10.38;2.90;;;;;;;17.87;52.87;101978.75;5052186;28;20028;-72
2023/05/25 05:22:28;;;;;;;9.32;2.83;;;;;;;17.79;52.33;101980.69;5083974;28;20032;-71
2023/05/25 05:24:54;;;;;;;10.95;2.88;;;;;;;17.13;53.53;101970.91;5084277;28;20043;-72
2023/05/25 05:27:19;;;;;;;10.88;2.97;;;;;;;17.45;52.85;101981.03;5066279;28;20036;-72
2023/05/25 05:29:45;;;;;;;12.57;2.92;;;;;;;17.32;52.50;101984.66;5084315;28;20099;-75
2023/05/25 05:32:10;;;;;;;15.13;3.33;;;;;;;17.57;51.75;101992.91;5083276;28;20070;-72
2023/05/25 05:34:36;;;;;;;11.77;2.65;;;;;;;17.43;52.32;101999.47;5051209;28;20060;-73
2023/05/25 05:37:01;;;;;;;10.75;3.25;;;;;;;17.25;52.89;102002.84;5102178;28;20561;-73
2023/05/25 05:39:27;;;;;;;11.57;2.75;;;;;;;17.09;53.34;102002.28;5098827;28;20028;-75
2023/05/25 05:41:53;;;;;;;12.68;2.65;;;;;;;17.13;52.77;102005.41;5047776;28;20529;-74
2023/05/25 05:44:22;;;;;;;12.82;4.03;;;;;;;16.74;52.48;101995.44;5065919;28;20498;-75
2023/05/25 05:46:48;;;;;;;11.75;2.92;;;;;;;16.43;52.58;102010.50;5082600;28;20123;-75
2023/05/25 05:49:13;;;;;;;12.95;3.55;;;;;;;16.61;52.92;101996.28;5081998;28;20111;-75
2023/05/25 05:51:39;;;;;;;9.88;3.20;;;;;;;16.78;50.69;101997.53;5064469;28;20031;-73
2023/05/25 05:54:05;;;;;;;8.82;2.60;;;;;;;16.74;50.93;102009.84;5093738;28;20041;-73
2023/05/25 05:56:30;;;;;;;9.35;2.95;;;;;;;16.65;51.17;102008.38;5103658;28;20031;-73
2023/05/25 05:58:56;;;;;;;11.05;3.05;;;;;;;16.68;49.69;101994.38;5082701;28;20120;-74
2023/05/25 06:01:22;;;;;;;10.82;3.38;;;;;;;16.93;49.51;102004.63;5081991;28;20064;-75
2023/05/25 06:03:47;;;;;;;12.77;3.05;;;;;;;17.00;49.44;102019.88;5065587;28;20052;-74
2023/05/25 06:06:13;;;;;;;10.95;3.22;;;;;;;16.68;50.59;102016.94;5082212;28;20051;-74
2023/05/25 06:08:41;;;;;;;11.60;3.05;;;;;;;16.77;49.77;102019.50;5065623;28;20036;-75
2023/05/25 06:11:06;;;;;;;11.23;3.13;;;;;;;16.94;51.04;102028.06;5081496;28;20096;-75
2023/05/25 06:13:32;;;;;;;12.85;2.70;;;;;;;16.87;51.61;102020.72;5075621;28;20504;-75
2023/05/25 06:15:57;;;;;;;11.85;3.13;;;;;;;17.09;50.88;102037.66;5080736;28;20032;-75
2023/05/25 06:18:23;;;;;;;8.50;2.42;;;;;;;17.54;49.32;102045.03;5062110;28;20032;-75
2023/05/25 06:20:48;;;;;;;10.73;2.67;;;;;;;17.54;49.70;102031.44;5047178;28;20028;-73
2023/05/25 06:23:14;;;;;;;10.65;2.90;;;;;;;17.73;49.14;102055.03;5029199;28;20032;-73
2023/05/25 06:25:39;;;;;;;9.77;2.65;;;;;;;17.72;47.94;102055.25;5059890;28;20032;-76
2023/05/25 06:28:05;;;;;;;12.00;3.67;;;;;;;17.82;48.75;102053.75;5062467;28;20017;-75
2023/05/25 06:30:30;;;;;;;11.52;2.70;;;;;;;17.66;48.24;102062.38;5045152;28;20048;-73
2023/05/25 06:32:56;;;;;;;8.68;2.55;;;;;;;17.41;47.25;102064.13;5045696;28;20116;-73
2023/05/25 06:35:22;;;;;;;10.65;2.60;;;;;;;17.79;47.74;102065.09;5080156;28;20056;-73
2023/05/25 06:37:48;;;;;;;8.52;2.40;;;;;;;17.43;46.88;102062.06;5061102;28;20112;-73
2023/05/25 06:40:15;;;;;;;9.32;2.55;;;;;;;17.40;46.43;102010.78;5063825;28;20036;-73
2023/05/25 06:42:41;;;;;;;10.40;2.53;;;;;;;17.66;46.66;102067.00;5046501;28;20028;-73
2023/05/25 06:45:08;;;;;;;10.55;2.65;;;;;;;17.86;46.70;102066.94;5079350;28;20043;-73
2023/05/25 06:47:33;;;;;;;10.13;2.53;;;;;;;17.24;47.03;102056.44;5060092;28;20024;-74
2023/05/25 06:49:59;;;;;;;7.45;2.42;;;;;;;17.51;46.31;102059.91;5059869;28;20468;-72
2023/05/25 06:52:28;;;;;;;9.75;2.58;;;;;;;17.57;46.93;102067.22;5043421;28;20082;-73
2023/05/25 06:54:54;;;;;;;11.07;2.60;;;;;;;17.77;47.51;102056.28;5060906;28;20036;-73
2023/05/25 06:57:21;;;;;;;7.53;2.30;;;;;;;18.00;46.59;102071.25;5061276;28;20017;-73
2023/05/25 06:59:46;;;;;;;8.20;2.30;;;;;;;18.08;45.58;102063.69;5061114;28;20559;-73
2023/05/25 07:02:11;;;;;;;11.93;2.60;;;;;;;17.64;45.73;102061.75;5060474;28;20080;-74
2023/05/25 07:04:37;;;;;;;12.35;2.60;;;;;;;17.61;45.86;102054.88;5045332;28;20029;-73
2023/05/25 07:07:02;;;;;;;6.80;2.40;;;;;;;17.74;44.14;102070.28;5060879;28;20032;-73
2023/05/25 07:09:28;;;;;;;11.18;2.10;;;;;;;17.35;44.94;102014.97;5058302;28;20024;-73
2023/05/25 07:11:53;;;;;;;9.45;2.60;;;;;;;17.78;45.82;102060.69;5076795;28;20035;-72
2023/05/25 07:14:19;;;;;;;8.07;2.08;;;;;;;17.93;46.71;102056.84;5061124;28;20036;-73
2023/05/25 07:16:44;;;;;;;10.35;2.30;;;;;;;17.72;46.08;102079.75;5060963;28;20036;-73
2023/05/25 07:19:10;;;;;;;11.15;2.47;;;;;;;17.96;47.26;102057.25;5060666;28;20131;-73
2023/05/25 07:21:36;;;;;;;9.27;2.50;;;;;;;18.08;46.20;102079.19;5046805;28;20029;-72
2023/05/25 07:24:02;;;;;;;10.30;2.20;;;;;;;18.15;45.45;102076.44;5060260;28;20028;-73
2023/05/25 07:26:27;;;;;;;5.93;2.10;;;;;;;18.05;45.00;102079.63;5078052;28;20028;-73
2023/05/25 07:28:53;;;;;;;6.28;1.98;;;;;;;17.86;44.11;102067.78;5031900;28;20047;-73
2023/05/25 07:31:18;;;;;;;11.35;2.55;;;;;;;18.16;46.16;102094.44;5063833;28;20635;-73
2023/05/25 07:33:44;;;;;;;9.63;2.40;;;;;;;18.19;45.27;102094.84;5079167;28;20040;-72
2023/05/25 07:36:09;;;;;;;6.50;1.85;;;;;;;18.04;44.25;102064.31;5077683;28;20480;-73
2023/05/25 07:38:35;;;;;;;7.78;2.30;;;;;;;17.76;45.35;102081.84;5060228;28;20066;-72
2023/05/25 07:41:01;;;;;;;6.40;1.73;;;;;;;17.76;46.15;102081.84;5059427;28;20032;-73
2023/05/25 07:43:26;;;;;;;11.00;2.72;;;;;;;17.16;46.70;102070.28;5059779;28;20027;-72
2023/05/25 07:45:53;;;;;;;8.27;2.65;;;;;;;17.13;49.46;102097.91;5077901;28;20054;-72
2023/05/25 07:48:18;;;;;;;6.90;1.83;;;;;;;16.97;48.41;102071.13;5060321;28;20043;-72
2023/05/25 07:50:44;;;;;;;8.68;2.40;;;;;;;17.29;47.88;102083.84;5040992;28;20029;-73
2023/05/25 07:53:09;;;;;;;7.65;2.28;;;;;;;17.66;46.93;102097.78;5039823;28;20056;-73
2023/05/25 07:55:35;;;;;;;10.35;2.35;;;;;;;17.45;46.64;102093.44;5042360;28;20035;-73
2023/05/25 07:58:00;;;;;;;9.70;1.80;;;;;;;17.42;46.60;102084.84;5077668;28;20025;-72
2023/05/25 08:00:28;;;;;;;6.55;1.80;;;;;;;17.17;46.73;102087.44;5077319;28;20097;-72
2023/05/25 08:02:54;;;;;;;7.63;1.88;;;;;;;17.26;48.57;102106.03;5043378;28;20092;-73
2023/05/25 08:05:20;;;;;;;6.57;1.90;;;;;;;17.56;46.44;102100.94;5077358;28;20468;-73
2023/05/25 08:07:46;;;;;;;7.35;1.80;;;;;;;17.34;47.27;102088.63;5059949;28;20124;-72
2023/05/25 08:10:11;;;;;;;6.40;1.67;;;;;;;17.31;48.88;102103.50;5059655;28;20040;-72
2023/05/25 08:12:37;;;;;;;8.55;2.03;;;;;;;17.14;47.72;102078.63;5078075;28;20500;-72
2023/05/25 08:15:03;;;;;;;6.38;2.13;;;;;;;16.93;49.16;102094.38;5066584;28;20024;-71
2023/05/25 08:17:28;;;;;;;9.15;2.40;;;;;;;16.69;51.06;102096.63;5065290;28;20033;-72
2023/05/25 08:19:55;;;;;;;9.13;2.65;;;;;;;16.84;51.41;102096.44;5054186;28;20040;-71
2023/05/25 08:22:20;;;;;;;8.73;2.45;;;;;;;16.64;50.21;102102.66;5086101;28;20048;-72
2023/05/25 08:24:46;;;;;;;6.80;1.70;;;;;;;16.94;49.65;102110.44;5083433;28;20029;-72
2023/05/25 08:27:11;;;;;;;8.57;1.98;;;;;;;17.06;48.02;102114.22;5063996;28;20032;-72
2023/05/25 08:29:37;;;;;;;8.07;1.88;;;;;;;17.32;49.49;102107.09;5061972;28;20087;-72
2023/05/25 08:32:02;;;;;;;6.00;1.85;;;;;;;16.88;48.64;102098.53;5077178;28;20526;-73
2023/05/25 08:34:29;;;;;;;10.10;2.47;;;;;;;16.49;48.20;102102.03;5059159;28;20511;-72
2023/05/25 08:36:56;;;;;;;8.25;2.88;;;;;;;16.39;48.89;102096.16;5042800;28;20036;-72
2023/05/25 08:39:22;;;;;;;6.15;2.10;;;;;;;16.28;49.21;102122.03;5059579;28;20103;-72
2023/05/25 08:41:49;;;;;;;8.05;1.95;;;;;;;16.38;49.47;102127.91;5059339;28;20052;-72
2023/05/25 08:44:14;;;;;;;9.27;2.40;;;;;;;16.36;50.29;102123.75;5059460;28;20029;-72
2023/05/25 08:46:40;;;;;;;9.70;3.05;;;;;;;16.27;50.31;102109.50;5059773;28;20105;-72
2023/05/25 08:49:14;;;;;;;9.32;2.47;;;;;;;16.29;50.95;102136.44;5062817;28;20029;-72
2023/05/25 08:51:51;;;;;;;9.27;2.97;;;;;;;16.36;50.01;102129.19;5081596;28;20020;-73
2023/05/25 08:54:19;;;;;;;8.43;2.22;;;;;;;16.39;51.64;102129.59;5063399;28;20411;-72
2023/05/25 08:57:10;;;;;;;9.98;2.53;;;;;;;16.36;51.13;102121.03;5063027;28;20074;-73
2023/05/25 09:00:02;;;;;;;11.27;2.42;;;;;;;16.32;51.72;102136.88;5071824;28;20033;-73
2023/05/25 09:02:36;;;;;;;7.65;2.40;;;;;;;16.12;50.22;102152.28;5085109;28;20556;-72
2023/05/25 09:05:03;;;;;;;9.07;2.28;;;;;;;16.18;50.57;102129.75;5062110;28;20633;-72
2023/05/25 09:07:29;;;;;;;6.88;2.33;;;;;;;16.20;51.55;102149.41;5080204;28;20036;-72
2023/05/25 09:09:56;;;;;;;6.35;1.88;;;;;;;16.28;50.72;102161.94;5063140;28;20068;-72
2023/05/25 09:12:22;;;;;;;8.65;2.38;;;;;;;16.25;50.15;102154.22;5046622;28;20123;-72
2023/05/25 09:14:48;;;;;;;6.95;2.30;;;;;;;16.26;49.42;102134.13;5062448;28;20028;-74
2023/05/25 09:17:15;;;;;;;7.68;1.80;;;;;;;16.52;50.00;102155.13;5080558;28;20059;-72
2023/05/25 09:19:41;;;;;;;11.57;2.65;;;;;;;16.59;50.51;102145.13;5062354;28;20028;-72
2023/05/25 09:22:09;;;;;;;11.68;2.65;;;;;;;16.20;49.66;102152.94;5078417;28;20028;-73
2023/05/25 09:24:35;;;;;;;11.90;3.08;;;;;;;16.28;51.13;102140.22;5077408;28;20024;-73
2023/05/25 09:27:02;;;;;;;12.85;2.80;;;;;;;16.34;52.07;102161.97;5079207;28;20046;-72
2023/05/25 09:29:28;;;;;;;9.13;2.70;;;;;;;16.24;50.59;102157.97;5062321;28;20059;-72
2023/05/25 09:31:54;;;;;;;9.82;2.72;;;;;;;16.31;50.64;102167.81;5080391;28;20025;-72
2023/05/25 09:34:20;;;;;;;12.27;3.05;;;;;;;16.26;50.46;102164.88;5061424;28;20040;-73
2023/05/25 09:36:45;;;;;;;13.98;3.40;;;;;;;16.33;52.50;102167.63;5061675;28;20540;-72
2023/05/25 09:39:12;;;;;;;12.55;3.40;;;;;;;16.23;53.08;102168.00;5045802;28;20035;-73
2023/05/25 09:41:40;;;;;;;10.50;3.13;;;;;;;16.27;52.01;102169.25;5080180;28;20020;-73
2023/05/25 09:44:06;;;;;;;8.35;2.80;;;;;;;16.12;51.07;102138.69;5067217;28;20051;-72
2023/05/25 09:46:35;;;;;;;13.38;3.30;;;;;;;16.19;52.79;102172.13;5071120;28;20036;-72
2023/05/25 09:49:02;;;;;;;15.85;3.28;;;;;;;16.28;51.84;102180.97;5061731;28;20075;-72
2023/05/25 09:51:31;;;;;;;10.20;3.17;;;;;;;16.26;51.14;102173.03;5080004;28;20032;-73
2023/05/25 09:53:58;;;;;;;9.05;3.20;;;;;;;16.15;51.25;102173.59;5045746;28;20039;-72
2023/05/25 09:56:26;;;;;;;11.85;2.88;;;;;;;16.09;51.12;102169.84;5079466;28;20119;-71
2023/05/25 09:58:51;;;;;;;9.23;3.38;;;;;;;16.04;52.75;102158.72;5061012;28;20054;-72
2023/05/25 10:01:18;;;;;;;12.35;3.20;;;;;;;16.16;52.83;102175.28;5061677;28;20135;-73
2023/05/25 10:03:47;;;;;;;8.02;2.40;;;;;;;16.21;51.07;102180.94;5045693;28;20264;-73
2023/05/25 10:06:14;;;;;;;14.02;3.47;;;;;;;16.06;52.56;102189.25;5061687;28;20025;-73
2023/05/25 10:08:42;;;;;;;13.82;4.03;;;;;;;16.07;50.66;102196.34;5061180;28;20555;-73
2023/05/25 10:11:10;;;;;;;11.15;2.70;;;;;;;16.41;50.63;102208.19;5061372;28;20218;-72
2023/05/25 10:13:36;;;;;;;12.32;3.80;;;;;;;16.45;50.40;102215.69;5062028;28;20025;-73
2023/05/25 10:16:04;;;;;;;8.00;2.53;;;;;;;16.25;50.46;102217.50;5029137;28;20032;-72
2023/05/25 10:19:08;;;;;;;11.60;2.88;;;;;;;16.26;51.97;102215.63;5061104;28;20032;-72
2023/05/25 10:21:36;;;;;;;11.02;2.97;;;;;;;16.37;50.65;102213.19;5020061;28;20041;-72
2023/05/25 10:24:33;;;;;;;7.53;2.38;;;;;;;16.54;49.82;102229.13;5018177;28;20061;-72
2023/05/25 10:27:02;;;;;;;12.70;3.00;;;;;;;16.49;51.04;102226.16;5018656;28;20100;-72
2023/05/25 10:29:29;;;;;;;11.57;2.88;;;;;;;16.28;50.69;102225.25;5036941;28;20049;-72
2023/05/25 10:31:57;;;;;;;11.27;3.22;;;;;;;16.49;53.04;102226.16;5035351;28;20083;-73
2023/05/25 10:34:22;;;;;;;10.43;2.75;;;;;;;16.31;52.70;102226.72;5001049;28;20037;-72
2023/05/25 10:36:48;;;;;;;11.05;2.63;;;;;;;16.13;52.87;102211.00;5036399;28;20044;-72
2023/05/25 10:39:14;;;;;;;8.25;2.20;;;;;;;16.24;50.23;102226.69;5019441;28;20033;-73
2023/05/25 10:41:41;;;;;;;9.73;2.88;;;;;;;16.21;50.04;102217.06;5036313;28;20084;-72
2023/05/25 10:44:08;;;;;;;8.27;3.00;;;;;;;16.12;52.44;102203.88;5020461;28;20033;-72
2023/05/25 10:46:35;;;;;;;11.40;3.00;;;;;;;16.20;51.84;102204.53;5020115;28;20512;-72
2023/05/25 10:49:01;;;;;;;8.98;2.72;;;;;;;16.30;52.11;102206.88;5003914;28;20025;-72
2023/05/25 10:51:59;;;;;;;9.85;2.55;;;;;;;16.42;49.88;102179.94;5010065;28;20040;-73
2023/05/25 10:54:30;;;;;;;10.80;2.65;;;;;;;16.58;48.77;102186.91;5051918;28;20040;-73
2023/05/25 10:57:16;;;;;;;8.68;2.90;;;;;;;16.33;49.42;102178.50;5078823;28;20024;-72
2023/05/25 10:59:44;;;;;;;8.02;2.10;;;;;;;16.56;48.00;102211.59;5061073;28;20103;-72
2023/05/25 11:02:10;;;;;;;9.70;2.92;;;;;;;16.27;49.16;102210.00;5044187;28;20067;-73
2023/05/25 11:04:36;;;;;;;11.63;2.72;;;;;;;16.14;50.07;102189.06;5078331;28;20028;-72
2023/05/25 11:07:01;;;;;;;10.95;2.70;;;;;;;16.44;49.95;102224.06;5043919;28;20146;-72
2023/05/25 11:09:30;;;;;;;9.75;2.70;;;;;;;16.48;49.27;102217.19;5060670;28;20488;-72
2023/05/25 11:11:58;;;;;;;10.32;2.50;;;;;;;16.57;48.13;102217.84;5076822;28;20411;-74
2023/05/25 11:14:27;;;;;;;10.95;2.70;;;;;;;16.63;48.49;102223.31;5083911;28;20075;-72
2023/05/25 11:17:17;;;;;;;7.85;2.22;;;;;;;16.78;47.23;102225.03;5071989;28;20029;-72
2023/05/25 11:19:47;;;;;;;7.65;2.25;;;;;;;16.55;48.44;102225.34;5082302;28;20024;-72
2023/05/25 11:22:36;;;;;;;7.15;2.20;;;;;;;16.32;49.15;102229.22;5058786;28;20107;-72